sensor_id;sensor_type;location;lat;lon;timestamp;P1;durP1;ratioP1;P2;durP2;ratioP2
67841;SDS011;54642;59.126;37.876;2023-04-03T00:01:37;10.50;;;4.10;;
67841;SDS011;54642;59.126;37.876;2023-04-03T00:04:04;8.77;;;3.70;;
67841;SDS011;54642;59.126;37.876;2023-04-03T00:06:31;15.35;;;3.35;;
67841;SDS011;54642;59.126;37.876;2023-04-03T00:08:57;13.10;;;3.25;;
67841;SDS011;54642;59.126;37.876;2023-04-03T00:11:23;6.45;;;2.58;;
67841;SDS011;54642;59.126;37.876;2023-04-03T00:13:50;12.68;;;3.40;;
67841;SDS011;54642;59.126;37.876;2023-04-03T00:16:16;19.15;;;3.28;;
67841;SDS011;54642;59.126;37.876;2023-04-03T00:18:43;12.13;;;2.80;;
67841;SDS011;54642;59.126;37.876;2023-04-03T00:21:09;5.85;;;2.70;;
67841;SDS011;54642;59.126;37.876;2023-04-03T00:23:38;8.93;;;2.42;;
67841;SDS011;54642;59.126;37.876;2023-04-03T00:26:04;6.20;;;2.38;;
67841;SDS011;54642;59.126;37.876;2023-04-03T00:28:30;8.38;;;3.25;;
67841;SDS011;54642;59.126;37.876;2023-04-03T00:30:56;26.02;;;3.13;;
67841;SDS011;54642;59.126;37.876;2023-04-03T00:33:22;15.55;;;2.63;;
67841;SDS011;54642;59.126;37.876;2023-04-03T00:35:50;12.10;;;2.25;;
67841;SDS011;54642;59.126;37.876;2023-04-03T00:38:16;9.55;;;3.22;;
67841;SDS011;54642;59.126;37.876;2023-04-03T00:40:44;6.43;;;2.70;;
67841;SDS011;54642;59.126;37.876;2023-04-03T00:43:12;6.13;;;2.58;;
67841;SDS011;54642;59.126;37.876;2023-04-03T00:45:41;6.93;;;2.42;;
67841;SDS011;54642;59.126;37.876;2023-04-03T00:50:56;10.93;;;2.22;;
67841;SDS011;54642;59.126;37.876;2023-04-03T00:53:27;4.03;;;2.08;;
67841;SDS011;54642;59.126;37.876;2023-04-03T00:55:58;10.65;;;2.50;;
67841;SDS011;54642;59.126;37.876;2023-04-03T00:58:28;8.60;;;2.78;;
67841;SDS011;54642;59.126;37.876;2023-04-03T01:01:03;7.43;;;2.40;;
67841;SDS011;54642;59.126;37.876;2023-04-03T01:03:33;7.18;;;2.22;;
67841;SDS011;54642;59.126;37.876;2023-04-03T01:06:02;5.20;;;2.47;;
67841;SDS011;54642;59.126;37.876;2023-04-03T01:08:28;9.00;;;2.45;;
67841;SDS011;54642;59.126;37.876;2023-04-03T01:10:55;6.47;;;3.35;;
67841;SDS011;54642;59.126;37.876;2023-04-03T01:13:32;4.47;;;2.05;;
67841;SDS011;54642;59.126;37.876;2023-04-03T01:16:02;10.93;;;1.90;;
67841;SDS011;54642;59.126;37.876;2023-04-03T01:18:31;4.75;;;2.00;;
67841;SDS011;54642;59.126;37.876;2023-04-03T01:21:11;7.53;;;2.13;;
67841;SDS011;54642;59.126;37.876;2023-04-03T01:23:55;3.88;;;2.05;;
67841;SDS011;54642;59.126;37.876;2023-04-03T01:26:35;4.00;;;1.98;;
67841;SDS011;54642;59.126;37.876;2023-04-03T01:29:01;8.57;;;1.75;;
67841;SDS011;54642;59.126;37.876;2023-04-03T01:31:31;5.97;;;2.38;;
67841;SDS011;54642;59.126;37.876;2023-04-03T01:34:22;3.95;;;1.77;;
67841;SDS011;54642;59.126;37.876;2023-04-03T01:36:50;6.78;;;1.83;;
67841;SDS011;54642;59.126;37.876;2023-04-03T01:39:17;5.25;;;1.60;;
67841;SDS011;54642;59.126;37.876;2023-04-03T01:41:43;5.35;;;2.08;;
67841;SDS011;54642;59.126;37.876;2023-04-03T01:44:15;4.28;;;1.75;;
67841;SDS011;54642;59.126;37.876;2023-04-03T01:46:42;5.75;;;1.73;;
67841;SDS011;54642;59.126;37.876;2023-04-03T01:49:08;3.30;;;1.33;;
67841;SDS011;54642;59.126;37.876;2023-04-03T01:51:34;8.05;;;2.13;;
67841;SDS011;54642;59.126;37.876;2023-04-03T01:54:01;7.50;;;1.60;;
67841;SDS011;54642;59.126;37.876;2023-04-03T01:56:27;7.00;;;1.95;;
67841;SDS011;54642;59.126;37.876;2023-04-03T01:58:53;4.68;;;1.90;;
67841;SDS011;54642;59.126;37.876;2023-04-03T02:01:19;4.30;;;1.73;;
67841;SDS011;54642;59.126;37.876;2023-04-03T02:03:46;4.22;;;2.35;;
67841;SDS011;54642;59.126;37.876;2023-04-03T02:06:12;5.05;;;2.00;;
67841;SDS011;54642;59.126;37.876;2023-04-03T02:08:38;8.32;;;1.50;;
67841;SDS011;54642;59.126;37.876;2023-04-03T02:11:05;7.15;;;2.38;;
67841;SDS011;54642;59.126;37.876;2023-04-03T02:13:32;6.72;;;3.35;;
67841;SDS011;54642;59.126;37.876;2023-04-03T02:15:59;3.80;;;1.70;;
67841;SDS011;54642;59.126;37.876;2023-04-03T02:18:25;5.75;;;2.10;;
67841;SDS011;54642;59.126;37.876;2023-04-03T02:20:51;7.28;;;2.05;;
67841;SDS011;54642;59.126;37.876;2023-04-03T02:23:17;5.75;;;1.70;;
67841;SDS011;54642;59.126;37.876;2023-04-03T02:25:43;5.00;;;2.10;;
67841;SDS011;54642;59.126;37.876;2023-04-03T02:28:09;6.32;;;2.25;;
67841;SDS011;54642;59.126;37.876;2023-04-03T02:30:35;15.90;;;2.67;;
67841;SDS011;54642;59.126;37.876;2023-04-03T02:33:01;6.72;;;2.05;;
67841;SDS011;54642;59.126;37.876;2023-04-03T02:35:27;5.05;;;1.75;;
67841;SDS011;54642;59.126;37.876;2023-04-03T02:37:55;18.60;;;2.63;;
67841;SDS011;54642;59.126;37.876;2023-04-03T02:40:22;9.82;;;2.00;;
67841;SDS011;54642;59.126;37.876;2023-04-03T02:42:49;10.82;;;1.90;;
67841;SDS011;54642;59.126;37.876;2023-04-03T02:45:15;6.60;;;1.63;;
67841;SDS011;54642;59.126;37.876;2023-04-03T02:47:41;9.30;;;2.30;;
67841;SDS011;54642;59.126;37.876;2023-04-03T02:50:08;4.43;;;2.53;;
67841;SDS011;54642;59.126;37.876;2023-04-03T02:52:35;6.03;;;2.50;;
67841;SDS011;54642;59.126;37.876;2023-04-03T02:55:00;4.97;;;1.70;;
67841;SDS011;54642;59.126;37.876;2023-04-03T02:57:26;5.03;;;2.03;;
67841;SDS011;54642;59.126;37.876;2023-04-03T02:59:52;3.58;;;1.75;;
67841;SDS011;54642;59.126;37.876;2023-04-03T03:02:18;5.03;;;2.35;;
67841;SDS011;54642;59.126;37.876;2023-04-03T03:04:44;5.72;;;2.42;;
67841;SDS011;54642;59.126;37.876;2023-04-03T03:07:10;7.53;;;2.40;;
67841;SDS011;54642;59.126;37.876;2023-04-03T03:09:36;8.52;;;2.70;;
67841;SDS011;54642;59.126;37.876;2023-04-03T03:12:04;9.40;;;4.65;;
67841;SDS011;54642;59.126;37.876;2023-04-03T03:14:30;10.48;;;4.88;;
67841;SDS011;54642;59.126;37.876;2023-04-03T03:16:56;8.90;;;3.50;;
67841;SDS011;54642;59.126;37.876;2023-04-03T03:19:22;7.60;;;3.72;;
67841;SDS011;54642;59.126;37.876;2023-04-03T03:21:48;7.72;;;3.50;;
67841;SDS011;54642;59.126;37.876;2023-04-03T03:24:14;10.15;;;5.30;;
67841;SDS011;54642;59.126;37.876;2023-04-03T03:26:41;13.50;;;4.65;;
67841;SDS011;54642;59.126;37.876;2023-04-03T03:29:07;14.52;;;4.72;;
67841;SDS011;54642;59.126;37.876;2023-04-03T03:31:33;14.55;;;5.13;;
67841;SDS011;54642;59.126;37.876;2023-04-03T03:33:59;12.52;;;4.68;;
67841;SDS011;54642;59.126;37.876;2023-04-03T03:36:25;13.30;;;5.22;;
67841;SDS011;54642;59.126;37.876;2023-04-03T03:38:51;9.55;;;3.72;;
67841;SDS011;54642;59.126;37.876;2023-04-03T03:41:17;8.70;;;3.92;;
67841;SDS011;54642;59.126;37.876;2023-04-03T03:43:44;11.95;;;4.45;;
67841;SDS011;54642;59.126;37.876;2023-04-03T03:46:12;12.75;;;3.13;;
67841;SDS011;54642;59.126;37.876;2023-04-03T03:48:38;8.45;;;3.15;;
67841;SDS011;54642;59.126;37.876;2023-04-03T03:51:04;9.85;;;3.40;;
67841;SDS011;54642;59.126;37.876;2023-04-03T03:53:34;6.50;;;2.90;;
67841;SDS011;54642;59.126;37.876;2023-04-03T03:56:04;7.60;;;3.00;;
67841;SDS011;54642;59.126;37.876;2023-04-03T03:58:31;8.18;;;2.72;;
67841;SDS011;54642;59.126;37.876;2023-04-03T04:01:01;10.27;;;3.28;;
67841;SDS011;54642;59.126;37.876;2023-04-03T04:03:32;6.70;;;2.50;;
67841;SDS011;54642;59.126;37.876;2023-04-03T04:05:59;8.00;;;2.67;;
67841;SDS011;54642;59.126;37.876;2023-04-03T04:08:25;12.13;;;3.15;;
67841;SDS011;54642;59.126;37.876;2023-04-03T04:10:51;17.60;;;4.25;;
67841;SDS011;54642;59.126;37.876;2023-04-03T04:13:18;6.40;;;2.58;;
67841;SDS011;54642;59.126;37.876;2023-04-03T04:15:44;10.30;;;2.13;;
67841;SDS011;54642;59.126;37.876;2023-04-03T04:18:11;6.25;;;2.50;;
67841;SDS011;54642;59.126;37.876;2023-04-03T04:20:39;14.07;;;2.58;;
67841;SDS011;54642;59.126;37.876;2023-04-03T04:23:05;14.32;;;2.72;;
67841;SDS011;54642;59.126;37.876;2023-04-03T04:25:32;14.23;;;2.20;;
67841;SDS011;54642;59.126;37.876;2023-04-03T04:27:58;11.07;;;2.70;;
67841;SDS011;54642;59.126;37.876;2023-04-03T04:30:24;9.23;;;2.17;;
67841;SDS011;54642;59.126;37.876;2023-04-03T04:32:50;23.88;;;2.65;;
67841;SDS011;54642;59.126;37.876;2023-04-03T04:35:17;12.95;;;1.88;;
67841;SDS011;54642;59.126;37.876;2023-04-03T04:37:45;16.20;;;2.17;;
67841;SDS011;54642;59.126;37.876;2023-04-03T04:40:12;5.45;;;2.90;;
67841;SDS011;54642;59.126;37.876;2023-04-03T04:42:38;12.27;;;2.45;;
67841;SDS011;54642;59.126;37.876;2023-04-03T04:45:05;27.33;;;2.60;;
67841;SDS011;54642;59.126;37.876;2023-04-03T04:47:33;12.10;;;2.92;;
67841;SDS011;54642;59.126;37.876;2023-04-03T04:49:59;17.65;;;3.40;;
67841;SDS011;54642;59.126;37.876;2023-04-03T04:52:26;24.85;;;3.17;;
67841;SDS011;54642;59.126;37.876;2023-04-03T04:54:52;15.48;;;3.30;;
67841;SDS011;54642;59.126;37.876;2023-04-03T04:57:18;15.40;;;3.47;;
67841;SDS011;54642;59.126;37.876;2023-04-03T04:59:45;8.85;;;2.67;;
67841;SDS011;54642;59.126;37.876;2023-04-03T05:02:11;16.95;;;2.75;;
67841;SDS011;54642;59.126;37.876;2023-04-03T05:04:39;7.85;;;2.85;;
67841;SDS011;54642;59.126;37.876;2023-04-03T05:07:11;10.35;;;3.20;;
67841;SDS011;54642;59.126;37.876;2023-04-03T05:09:37;18.15;;;4.25;;
67841;SDS011;54642;59.126;37.876;2023-04-03T05:12:04;21.85;;;3.58;;
67841;SDS011;54642;59.126;37.876;2023-04-03T05:17:05;17.40;;;4.03;;
67841;SDS011;54642;59.126;37.876;2023-04-03T05:19:35;10.77;;;3.80;;
67841;SDS011;54642;59.126;37.876;2023-04-03T05:22:02;8.18;;;3.30;;
67841;SDS011;54642;59.126;37.876;2023-04-03T05:24:29;7.22;;;3.63;;
67841;SDS011;54642;59.126;37.876;2023-04-03T05:26:55;8.73;;;4.20;;
67841;SDS011;54642;59.126;37.876;2023-04-03T05:29:21;24.92;;;4.53;;
67841;SDS011;54642;59.126;37.876;2023-04-03T05:31:51;9.45;;;3.65;;
67841;SDS011;54642;59.126;37.876;2023-04-03T05:34:17;21.20;;;4.72;;
67841;SDS011;54642;59.126;37.876;2023-04-03T05:36:44;14.98;;;4.38;;
67841;SDS011;54642;59.126;37.876;2023-04-03T05:39:12;21.77;;;4.30;;
67841;SDS011;54642;59.126;37.876;2023-04-03T05:41:41;13.93;;;4.20;;
67841;SDS011;54642;59.126;37.876;2023-04-03T05:44:06;9.40;;;3.63;;
67841;SDS011;54642;59.126;37.876;2023-04-03T05:46:32;10.15;;;3.78;;
67841;SDS011;54642;59.126;37.876;2023-04-03T05:49:02;7.60;;;3.97;;
67841;SDS011;54642;59.126;37.876;2023-04-03T05:51:33;13.15;;;4.20;;
67841;SDS011;54642;59.126;37.876;2023-04-03T05:54:12;10.23;;;4.35;;
67841;SDS011;54642;59.126;37.876;2023-04-03T05:56:43;10.25;;;3.42;;
67841;SDS011;54642;59.126;37.876;2023-04-03T05:59:10;13.30;;;3.63;;
67841;SDS011;54642;59.126;37.876;2023-04-03T06:01:36;9.30;;;4.05;;
67841;SDS011;54642;59.126;37.876;2023-04-03T06:04:03;14.18;;;3.53;;
67841;SDS011;54642;59.126;37.876;2023-04-03T06:09:20;13.02;;;3.10;;
67841;SDS011;54642;59.126;37.876;2023-04-03T06:11:47;13.35;;;4.10;;
67841;SDS011;54642;59.126;37.876;2023-04-03T06:14:14;10.20;;;3.92;;
67841;SDS011;54642;59.126;37.876;2023-04-03T06:16:40;10.43;;;4.47;;
67841;SDS011;54642;59.126;37.876;2023-04-03T06:19:07;11.48;;;5.63;;
67841;SDS011;54642;59.126;37.876;2023-04-03T06:21:37;11.63;;;4.57;;
67841;SDS011;54642;59.126;37.876;2023-04-03T06:24:04;11.15;;;4.85;;
67841;SDS011;54642;59.126;37.876;2023-04-03T06:26:31;11.30;;;4.85;;
67841;SDS011;54642;59.126;37.876;2023-04-03T06:28:58;11.68;;;4.28;;
67841;SDS011;54642;59.126;37.876;2023-04-03T06:31:24;13.85;;;5.28;;
67841;SDS011;54642;59.126;37.876;2023-04-03T06:33:51;9.35;;;4.30;;
67841;SDS011;54642;59.126;37.876;2023-04-03T06:36:18;8.63;;;3.85;;
67841;SDS011;54642;59.126;37.876;2023-04-03T06:38:46;11.95;;;4.72;;
67841;SDS011;54642;59.126;37.876;2023-04-03T06:41:13;11.98;;;4.07;;
67841;SDS011;54642;59.126;37.876;2023-04-03T06:43:39;13.27;;;4.93;;
67841;SDS011;54642;59.126;37.876;2023-04-03T06:46:05;7.45;;;4.07;;
67841;SDS011;54642;59.126;37.876;2023-04-03T06:48:31;10.63;;;4.10;;
67841;SDS011;54642;59.126;37.876;2023-04-03T06:50:57;9.90;;;3.65;;
67841;SDS011;54642;59.126;37.876;2023-04-03T06:53:23;10.40;;;4.45;;
67841;SDS011;54642;59.126;37.876;2023-04-03T06:55:49;9.57;;;3.92;;
67841;SDS011;54642;59.126;37.876;2023-04-03T06:58:15;7.68;;;3.55;;
67841;SDS011;54642;59.126;37.876;2023-04-03T07:00:42;8.73;;;4.30;;
67841;SDS011;54642;59.126;37.876;2023-04-03T07:03:08;11.65;;;4.00;;
67841;SDS011;54642;59.126;37.876;2023-04-03T07:05:34;8.75;;;3.92;;
67841;SDS011;54642;59.126;37.876;2023-04-03T07:08:00;12.05;;;4.55;;
67841;SDS011;54642;59.126;37.876;2023-04-03T07:10:26;7.55;;;3.58;;
67841;SDS011;54642;59.126;37.876;2023-04-03T07:12:52;9.02;;;4.07;;
67841;SDS011;54642;59.126;37.876;2023-04-03T07:15:18;12.57;;;4.88;;
67841;SDS011;54642;59.126;37.876;2023-04-03T07:17:44;10.25;;;4.05;;
67841;SDS011;54642;59.126;37.876;2023-04-03T07:20:11;11.90;;;4.97;;
67841;SDS011;54642;59.126;37.876;2023-04-03T07:22:37;10.27;;;4.32;;
67841;SDS011;54642;59.126;37.876;2023-04-03T07:25:03;9.50;;;4.72;;
67841;SDS011;54642;59.126;37.876;2023-04-03T07:27:31;8.55;;;3.80;;
67841;SDS011;54642;59.126;37.876;2023-04-03T07:29:57;10.95;;;4.75;;
67841;SDS011;54642;59.126;37.876;2023-04-03T07:32:23;9.73;;;4.57;;
67841;SDS011;54642;59.126;37.876;2023-04-03T07:34:49;10.48;;;4.38;;
67841;SDS011;54642;59.126;37.876;2023-04-03T07:37:15;9.95;;;3.47;;
67841;SDS011;54642;59.126;37.876;2023-04-03T07:39:43;9.88;;;4.03;;
67841;SDS011;54642;59.126;37.876;2023-04-03T07:42:10;11.05;;;4.20;;
67841;SDS011;54642;59.126;37.876;2023-04-03T07:44:37;10.57;;;4.25;;
67841;SDS011;54642;59.126;37.876;2023-04-03T07:47:03;6.20;;;3.42;;
67841;SDS011;54642;59.126;37.876;2023-04-03T07:49:29;8.70;;;4.07;;
67841;SDS011;54642;59.126;37.876;2023-04-03T07:51:55;11.30;;;4.50;;
67841;SDS011;54642;59.126;37.876;2023-04-03T07:54:21;9.52;;;4.18;;
67841;SDS011;54642;59.126;37.876;2023-04-03T07:56:47;11.23;;;4.70;;
67841;SDS011;54642;59.126;37.876;2023-04-03T07:59:13;11.68;;;4.68;;
67841;SDS011;54642;59.126;37.876;2023-04-03T08:01:39;11.85;;;4.53;;
67841;SDS011;54642;59.126;37.876;2023-04-03T08:04:05;10.93;;;4.45;;
67841;SDS011;54642;59.126;37.876;2023-04-03T08:06:32;12.02;;;4.68;;
67841;SDS011;54642;59.126;37.876;2023-04-03T08:09:01;8.60;;;4.03;;
67841;SDS011;54642;59.126;37.876;2023-04-03T08:11:29;8.95;;;4.05;;
67841;SDS011;54642;59.126;37.876;2023-04-03T08:13:56;10.52;;;4.47;;
67841;SDS011;54642;59.126;37.876;2023-04-03T08:16:22;8.40;;;3.80;;
67841;SDS011;54642;59.126;37.876;2023-04-03T08:18:52;11.27;;;3.83;;
67841;SDS011;54642;59.126;37.876;2023-04-03T08:21:19;12.73;;;3.90;;
67841;SDS011;54642;59.126;37.876;2023-04-03T08:23:47;9.70;;;4.25;;
67841;SDS011;54642;59.126;37.876;2023-04-03T08:26:16;9.07;;;4.28;;
67841;SDS011;54642;59.126;37.876;2023-04-03T08:28:44;11.55;;;3.83;;
67841;SDS011;54642;59.126;37.876;2023-04-03T08:31:11;9.30;;;6.00;;
67841;SDS011;54642;59.126;37.876;2023-04-03T08:33:40;11.02;;;4.97;;
67841;SDS011;54642;59.126;37.876;2023-04-03T08:36:07;9.13;;;3.90;;
67841;SDS011;54642;59.126;37.876;2023-04-03T08:38:43;8.80;;;4.03;;
67841;SDS011;54642;59.126;37.876;2023-04-03T08:41:16;10.57;;;5.05;;
67841;SDS011;54642;59.126;37.876;2023-04-03T08:46:52;7.90;;;3.28;;
67841;SDS011;54642;59.126;37.876;2023-04-03T08:49:35;9.75;;;4.18;;
67841;SDS011;54642;59.126;37.876;2023-04-03T08:52:12;8.50;;;3.88;;
67841;SDS011;54642;59.126;37.876;2023-04-03T08:54:47;8.43;;;4.20;;
67841;SDS011;54642;59.126;37.876;2023-04-03T08:57:16;9.25;;;3.85;;
67841;SDS011;54642;59.126;37.876;2023-04-03T08:59:45;8.07;;;4.03;;
67841;SDS011;54642;59.126;37.876;2023-04-03T09:02:17;7.05;;;3.55;;
67841;SDS011;54642;59.126;37.876;2023-04-03T09:04:50;6.18;;;3.60;;
67841;SDS011;54642;59.126;37.876;2023-04-03T09:07:19;7.60;;;3.67;;
67841;SDS011;54642;59.126;37.876;2023-04-03T09:09:55;8.93;;;3.72;;
67841;SDS011;54642;59.126;37.876;2023-04-03T09:12:34;8.52;;;3.45;;
67841;SDS011;54642;59.126;37.876;2023-04-03T09:17:45;14.07;;;4.97;;
67841;SDS011;54642;59.126;37.876;2023-04-03T09:26:00;11.10;;;5.30;;
67841;SDS011;54642;59.126;37.876;2023-04-03T09:28:31;8.63;;;4.47;;
67841;SDS011;54642;59.126;37.876;2023-04-03T09:31:05;10.55;;;7.28;;
67841;SDS011;54642;59.126;37.876;2023-04-03T09:33:44;7.82;;;4.13;;
67841;SDS011;54642;59.126;37.876;2023-04-03T09:36:10;9.15;;;4.72;;
67841;SDS011;54642;59.126;37.876;2023-04-03T09:38:37;9.90;;;4.47;;
67841;SDS011;54642;59.126;37.876;2023-04-03T09:43:38;7.47;;;4.13;;
67841;SDS011;54642;59.126;37.876;2023-04-03T09:46:17;6.38;;;3.80;;
67841;SDS011;54642;59.126;37.876;2023-04-03T09:48:58;6.82;;;3.17;;
67841;SDS011;54642;59.126;37.876;2023-04-03T09:51:29;7.10;;;3.15;;
67841;SDS011;54642;59.126;37.876;2023-04-03T09:53:56;8.57;;;3.30;;
67841;SDS011;54642;59.126;37.876;2023-04-03T09:56:27;6.13;;;3.03;;
67841;SDS011;54642;59.126;37.876;2023-04-03T10:01:31;7.38;;;3.50;;
67841;SDS011;54642;59.126;37.876;2023-04-03T10:06:36;9.30;;;3.90;;
67841;SDS011;54642;59.126;37.876;2023-04-03T10:14:27;8.13;;;3.72;;
67841;SDS011;54642;59.126;37.876;2023-04-03T10:17:02;9.55;;;4.18;;
67841;SDS011;54642;59.126;37.876;2023-04-03T10:20:15;7.72;;;4.07;;
67841;SDS011;54642;59.126;37.876;2023-04-03T10:28:25;7.38;;;3.92;;
67841;SDS011;54642;59.126;37.876;2023-04-03T10:44:28;9.65;;;4.30;;
67841;SDS011;54642;59.126;37.876;2023-04-03T10:47:02;10.43;;;4.70;;
67841;SDS011;54642;59.126;37.876;2023-04-03T10:57:56;7.28;;;3.70;;
67841;SDS011;54642;59.126;37.876;2023-04-03T11:00:30;7.78;;;3.67;;
67841;SDS011;54642;59.126;37.876;2023-04-03T11:03:24;7.72;;;3.40;;
67841;SDS011;54642;59.126;37.876;2023-04-03T11:06:09;7.95;;;3.97;;
67841;SDS011;54642;59.126;37.876;2023-04-03T11:11:24;8.75;;;3.70;;
67841;SDS011;54642;59.126;37.876;2023-04-03T11:14:01;7.07;;;3.63;;
67841;SDS011;54642;59.126;37.876;2023-04-03T11:16:33;6.70;;;3.75;;
67841;SDS011;54642;59.126;37.876;2023-04-03T11:19:12;7.50;;;4.30;;
67841;SDS011;54642;59.126;37.876;2023-04-03T11:24:36;8.48;;;4.18;;
67841;SDS011;54642;59.126;37.876;2023-04-03T11:27:08;7.22;;;3.47;;
67841;SDS011;54642;59.126;37.876;2023-04-03T11:29:48;8.48;;;4.28;;
67841;SDS011;54642;59.126;37.876;2023-04-03T11:35:06;12.70;;;4.57;;
67841;SDS011;54642;59.126;37.876;2023-04-03T11:37:44;9.38;;;3.97;;
67841;SDS011;54642;59.126;37.876;2023-04-03T11:40:19;9.45;;;5.20;;
67841;SDS011;54642;59.126;37.876;2023-04-03T11:42:55;10.93;;;5.25;;
67841;SDS011;54642;59.126;37.876;2023-04-03T11:51:02;9.63;;;3.90;;
67841;SDS011;54642;59.126;37.876;2023-04-03T11:53:48;8.80;;;3.92;;
67841;SDS011;54642;59.126;37.876;2023-04-03T12:04:16;11.48;;;4.15;;
67841;SDS011;54642;59.126;37.876;2023-04-03T12:06:58;8.32;;;3.78;;
67841;SDS011;54642;59.126;37.876;2023-04-03T12:09:32;7.57;;;3.85;;
67841;SDS011;54642;59.126;37.876;2023-04-03T12:14:54;10.77;;;5.47;;
67841;SDS011;54642;59.126;37.876;2023-04-03T12:17:26;12.45;;;4.80;;
67841;SDS011;54642;59.126;37.876;2023-04-03T12:19:54;9.38;;;5.20;;
67841;SDS011;54642;59.126;37.876;2023-04-03T12:22:20;11.25;;;4.70;;
67841;SDS011;54642;59.126;37.876;2023-04-03T12:24:47;7.55;;;3.35;;
67841;SDS011;54642;59.126;37.876;2023-04-03T12:27:51;9.18;;;3.97;;
67841;SDS011;54642;59.126;37.876;2023-04-03T12:30:15;9.23;;;4.13;;
67841;SDS011;54642;59.126;37.876;2023-04-03T12:32:58;7.60;;;3.63;;
67841;SDS011;54642;59.126;37.876;2023-04-03T12:41:11;9.52;;;3.95;;
67841;SDS011;54642;59.126;37.876;2023-04-03T12:46:38;8.75;;;4.18;;
67841;SDS011;54642;59.126;37.876;2023-04-03T12:49:18;9.77;;;4.43;;
67841;SDS011;54642;59.126;37.876;2023-04-03T12:52:04;8.18;;;3.97;;
67841;SDS011;54642;59.126;37.876;2023-04-03T12:54:42;7.28;;;3.60;;
67841;SDS011;54642;59.126;37.876;2023-04-03T12:57:26;9.93;;;4.13;;
67841;SDS011;54642;59.126;37.876;2023-04-03T12:59:53;6.95;;;3.28;;
67841;SDS011;54642;59.126;37.876;2023-04-03T13:02:21;9.45;;;4.03;;
67841;SDS011;54642;59.126;37.876;2023-04-03T13:05:08;7.68;;;3.80;;
67841;SDS011;54642;59.126;37.876;2023-04-03T13:07:39;13.88;;;3.83;;
67841;SDS011;54642;59.126;37.876;2023-04-03T13:12:33;9.10;;;3.80;;
67841;SDS011;54642;59.126;37.876;2023-04-03T13:15:23;13.02;;;4.65;;
67841;SDS011;54642;59.126;37.876;2023-04-03T13:17:51;12.50;;;4.72;;
67841;SDS011;54642;59.126;37.876;2023-04-03T13:22:54;12.35;;;4.55;;
67841;SDS011;54642;59.126;37.876;2023-04-03T13:25:23;9.48;;;4.05;;
67841;SDS011;54642;59.126;37.876;2023-04-03T13:27:52;6.05;;;3.55;;
67841;SDS011;54642;59.126;37.876;2023-04-03T13:30:20;8.35;;;4.07;;
67841;SDS011;54642;59.126;37.876;2023-04-03T13:32:50;6.82;;;3.38;;
67841;SDS011;54642;59.126;37.876;2023-04-03T13:38:06;8.05;;;4.00;;
67841;SDS011;54642;59.126;37.876;2023-04-03T13:40:49;9.82;;;3.85;;
67841;SDS011;54642;59.126;37.876;2023-04-03T13:43:21;8.23;;;4.00;;
67841;SDS011;54642;59.126;37.876;2023-04-03T13:45:59;6.32;;;3.67;;
67841;SDS011;54642;59.126;37.876;2023-04-03T13:48:43;10.95;;;4.50;;
67841;SDS011;54642;59.126;37.876;2023-04-03T13:53:47;7.05;;;3.90;;
67841;SDS011;54642;59.126;37.876;2023-04-03T13:56:34;7.45;;;3.42;;
67841;SDS011;54642;59.126;37.876;2023-04-03T14:04:32;7.78;;;3.50;;
67841;SDS011;54642;59.126;37.876;2023-04-03T14:07:13;6.70;;;2.95;;
67841;SDS011;54642;59.126;37.876;2023-04-03T14:09:42;9.18;;;4.55;;
67841;SDS011;54642;59.126;37.876;2023-04-03T14:12:12;8.15;;;3.45;;
67841;SDS011;54642;59.126;37.876;2023-04-03T14:14:42;9.32;;;3.67;;
67841;SDS011;54642;59.126;37.876;2023-04-03T14:17:17;6.97;;;3.40;;
67841;SDS011;54642;59.126;37.876;2023-04-03T14:19:48;9.95;;;3.67;;
67841;SDS011;54642;59.126;37.876;2023-04-03T14:22:17;7.18;;;3.40;;
67841;SDS011;54642;59.126;37.876;2023-04-03T14:24:47;6.45;;;3.50;;
67841;SDS011;54642;59.126;37.876;2023-04-03T14:27:16;5.97;;;2.92;;
67841;SDS011;54642;59.126;37.876;2023-04-03T14:29:48;6.50;;;2.97;;
67841;SDS011;54642;59.126;37.876;2023-04-03T14:32:15;6.43;;;3.85;;
67841;SDS011;54642;59.126;37.876;2023-04-03T14:34:43;6.05;;;3.40;;
67841;SDS011;54642;59.126;37.876;2023-04-03T14:37:11;6.85;;;3.35;;
67841;SDS011;54642;59.126;37.876;2023-04-03T14:39:40;5.55;;;3.28;;
67841;SDS011;54642;59.126;37.876;2023-04-03T14:42:10;7.38;;;3.35;;
67841;SDS011;54642;59.126;37.876;2023-04-03T14:44:38;6.32;;;3.50;;
67841;SDS011;54642;59.126;37.876;2023-04-03T14:47:04;8.52;;;3.88;;
67841;SDS011;54642;59.126;37.876;2023-04-03T14:49:31;8.50;;;3.83;;
67841;SDS011;54642;59.126;37.876;2023-04-03T14:51:57;9.23;;;3.85;;
67841;SDS011;54642;59.126;37.876;2023-04-03T14:54:24;8.18;;;4.25;;
67841;SDS011;54642;59.126;37.876;2023-04-03T14:56:54;9.40;;;3.95;;
67841;SDS011;54642;59.126;37.876;2023-04-03T14:59:23;10.43;;;4.90;;
67841;SDS011;54642;59.126;37.876;2023-04-03T15:01:50;8.65;;;4.25;;
67841;SDS011;54642;59.126;37.876;2023-04-03T15:04:17;10.77;;;4.00;;
67841;SDS011;54642;59.126;37.876;2023-04-03T15:06:44;22.00;;;5.32;;
67841;SDS011;54642;59.126;37.876;2023-04-03T15:09:19;12.07;;;4.47;;
67841;SDS011;54642;59.126;37.876;2023-04-03T15:11:48;16.85;;;4.80;;
67841;SDS011;54642;59.126;37.876;2023-04-03T15:14:15;12.75;;;5.43;;
67841;SDS011;54642;59.126;37.876;2023-04-03T15:16:41;43.05;;;5.03;;
67841;SDS011;54642;59.126;37.876;2023-04-03T15:19:07;15.93;;;4.68;;
67841;SDS011;54642;59.126;37.876;2023-04-03T15:21:33;15.82;;;4.22;;
67841;SDS011;54642;59.126;37.876;2023-04-03T15:23:59;18.52;;;5.00;;
67841;SDS011;54642;59.126;37.876;2023-04-03T15:26:25;14.57;;;4.50;;
67841;SDS011;54642;59.126;37.876;2023-04-03T15:28:51;13.98;;;4.90;;
67841;SDS011;54642;59.126;37.876;2023-04-03T15:31:17;17.70;;;4.30;;
67841;SDS011;54642;59.126;37.876;2023-04-03T15:33:43;17.08;;;3.92;;
67841;SDS011;54642;59.126;37.876;2023-04-03T15:36:09;10.48;;;3.75;;
67841;SDS011;54642;59.126;37.876;2023-04-03T15:38:35;18.02;;;5.13;;
67841;SDS011;54642;59.126;37.876;2023-04-03T15:41:06;23.52;;;5.10;;
67841;SDS011;54642;59.126;37.876;2023-04-03T15:43:32;17.98;;;5.30;;
67841;SDS011;54642;59.126;37.876;2023-04-03T15:46:01;25.88;;;6.22;;
67841;SDS011;54642;59.126;37.876;2023-04-03T15:48:27;14.88;;;5.30;;
67841;SDS011;54642;59.126;37.876;2023-04-03T15:50:54;20.48;;;5.05;;
67841;SDS011;54642;59.126;37.876;2023-04-03T15:53:21;18.38;;;4.20;;
67841;SDS011;54642;59.126;37.876;2023-04-03T15:55:47;23.58;;;5.88;;
67841;SDS011;54642;59.126;37.876;2023-04-03T15:58:13;22.45;;;4.15;;
67841;SDS011;54642;59.126;37.876;2023-04-03T16:00:39;17.45;;;4.82;;
67841;SDS011;54642;59.126;37.876;2023-04-03T16:03:08;22.83;;;4.45;;
67841;SDS011;54642;59.126;37.876;2023-04-03T16:05:40;14.75;;;4.45;;
67841;SDS011;54642;59.126;37.876;2023-04-03T16:08:06;14.40;;;4.05;;
67841;SDS011;54642;59.126;37.876;2023-04-03T16:10:33;10.32;;;3.95;;
67841;SDS011;54642;59.126;37.876;2023-04-03T16:13:00;25.85;;;4.28;;
67841;SDS011;54642;59.126;37.876;2023-04-03T16:15:26;33.35;;;6.28;;
67841;SDS011;54642;59.126;37.876;2023-04-03T16:17:53;16.75;;;4.05;;
67841;SDS011;54642;59.126;37.876;2023-04-03T16:20:19;16.27;;;4.15;;
67841;SDS011;54642;59.126;37.876;2023-04-03T16:22:47;14.88;;;4.40;;
67841;SDS011;54642;59.126;37.876;2023-04-03T16:25:14;23.70;;;4.60;;
67841;SDS011;54642;59.126;37.876;2023-04-03T16:27:40;24.73;;;4.70;;
67841;SDS011;54642;59.126;37.876;2023-04-03T16:30:07;13.65;;;4.00;;